Aeroporto :
LOGIN :

Iscrizione | Disclaimer

   EN    FR    IT 

 










Sommario :    VFR   VFR Marginale   IFR   IFR Intensivo   IFR Molto Intensivo
Visibilità : 
Base nubi : 
>= 8 km
>= 3000ft
5 / 8 km
1000 / 3000 ft
1500m / 5 km
500 / 1000 ft
800 / 1500m
200 / 500 ft
< 800m
< 200 ft
Simboli :   Temporali  Nebbia  Neve Forte  Precipitazioni Forti  Vento > 20 kt
SIGMETs :   Varie  Temporali  Ghiacco  Turbolenza  Onda orograficha  Ceneri Vulcaniche






- Altitudine del aeroporto : 256 ft
- Codice IATA : KUN


EYKA - Kaunas

ULTIMO METAR :
  • 301550Z 03015G25KT 350V070 9999 -RA NSC 18/06 Q1013

METARs OBSOLETI :
  • 301520Z 02012KT 330V070 9999 -RA NSC 18/06 Q1013
  • 301450Z 01012G23KT 330V060 CAVOK 19/06 Q1013
  • 301420Z 01013G23KT 330V040 9999 -RA NSC 18/06 Q1013
  • 301350Z 01012KT 340V060 CAVOK 19/06 Q1013
  • 301320Z 01015KT 330V060 CAVOK 19/05 Q1013

TAF TAF EYKA
Valido dal 30 a 12 ore il 31 a 12 ore UTC


301100Z 3012/3112 01020G32KT 9000 NSC
BECMG 3013/3014 BKN030
TEMPO 3015/3020 5000 SHRA BKN020CB
BECMG 3023/3024 NSC



MetMap, La meteo Aeronautica in un colpo d'occhio ! - Copyright ORBIFLY Dicembre 2007 - Disclaimer

ORBIFLY MET'MAP TEAM :

Programmazione e sviluppo : Alexandra Zaïnal
Concezione : Baudouin d'Aumeries
Aiuto per la programmazione : Marc-Olivier Méhu
Supporto tecnico e logistico : Manuel Goepfert
Aiuto per la traduzione : Arnaldo La Scala

Contatto : metmap@orbifly.com




FONTI E CREDITI :

   NOAA